Latest Coastal Weather Observations for Port Macquarie Airport

IDN60701

Issued at 7:05 pm EST Saturday 26 July 2014 (issued every 10 minutes, with the page automatically refreshed every 10 minutes)

About coastal observations | Map of coastal stations | Coastal observations for NSW | Marine services | Other Formats
Station Details ID: 060139 Name: PORT MACQUARIE AIRPORT AWS Lat: -31.43 Lon: 152.87 Height: 4.2 m
Data from the previous 72 hours. | See also: Recent months at Port Macquarie Airport
Date/Time
EST
Temp

°C
Wind Pressure Rain
since 9am
mm
Weather Cloud Vis
km
Sea
Height
m
Swell
Dir
 
Speed
knots
Gust
knots
hPa Trend Height
m
Period
s
Dir
26/07:00pm 12.8 WSW 4 5 1023.1 - 9.4 - Partly cloudy 10 - - - -
26/06:30pm 13.4 WNW 7 9 1023.0 - 9.2 - Partly cloudy 10 - - - -
26/06:00pm 13.2 SSW 5 7 1022.8 - 9.2 - Cloudy 10 - - - -
26/05:30pm 13.7 SSW 7 9 1022.6 - 9.2 - Partly cloudy 10 - - - -
26/05:00pm 13.8 CALM 0 0 1022.1 - 9.2 - Cloudy 10 - - - -
26/04:30pm 13.9 SW 1 4 1021.5 - 9.2 - Partly cloudy 10 - - - -
26/04:00pm 13.9 SSE 4 5 1020.9 - 9.2 - Partly cloudy 10 - - - -
26/03:30pm 14.1 W 3 5 1021.8 - 8.8 - Partly cloudy 10 - - - -
26/03:00pm 14.4 W 5 6 1021.4 - 8.6 Recent precip. Mostly cloudy 10 - - - -
26/02:30pm 14.4 NE 7 11 1020.8 - 8.6 - Partly cloudy 10 - - - -
26/02:27pm 14.4 NE 7 10 1020.8 - 8.6 - Partly cloudy 10 - - - -
26/02:06pm 14.5 SSW 2 4 1022.4 - 7.2 - Partly cloudy 5 - - - -
26/02:00pm 14.6 S 3 5 1022.4 - 6.6 - Partly cloudy 10 - - - -
26/01:41pm 14.7 NW 2 5 1022.6 - 5.6 - Partly cloudy 7 - - - -
26/01:35pm 14.6 N 3 7 1023.0 - 5.2 - Partly cloudy 7 - - - -
26/01:34pm 14.6 NNW 4 7 1023.1 - 5.2 - Partly cloudy 7 - - - -
26/01:30pm 14.7 NW 6 10 1023.2 - 4.8 - Partly cloudy 5 - - - -
26/01:23pm 14.6 W 7 10 1023.3 - 4.4 - Partly cloudy 3 - - - -
26/01:22pm 14.7 WSW 13 20 1023.3 - 4.0 - Partly cloudy 3 - - - -
26/01:15pm 15.1 WSW 14 20 1023.1 - 1.8 - Partly cloudy 5 - - - -
26/01:00pm 16.7 WSW 17 23 1022.9 - 0.0 - Partly cloudy 10 - - - -
26/12:56pm 16.5 W 16 22 1022.9 - 0.0 - Partly cloudy 10 - - - -
26/12:30pm 17.0 WNW 3 4 1022.2 - 0.0 - Partly cloudy 10 - - - -
26/12:00pm 16.7 SSE 3 5 1022.4 - 0.0 - Mostly cloudy 10 - - - -
26/11:30am 15.4 CALM 0 2 1023.5 - 0.0 - Partly cloudy 10 - - - -
26/11:00am 15.2 WSW 4 6 1024.0 - 0.0 - Partly cloudy 10 - - - -
26/10:30am 14.2 WSW 4 5 1024.4 - 0.0 - Cloudy 10 - - - -
26/10:00am 13.5 WSW 3 4 1024.8 - 0.0 - Partly cloudy 10 - - - -
26/09:30am 12.5 NW 5 6 1024.8 - 0.0 - - 10 - - - -
26/09:00am 12.2 CALM 0 0 1024.5 - 0.0 - Cloudy 10 - - - -
26/08:30am 11.9 CALM 0 0 1024.6 - 0.0 - - 10 - - - -
26/08:00am 11.8 CALM 0 0 1024.4 - 0.0 - - 10 - - - -
26/07:30am 11.3 WNW 3 5 1024.3 - 0.0 - - 10 - - - -
26/07:00am 10.9 CALM 0 0 1023.9 - 0.0 - - 10 - - - -
26/06:30am 10.3 SSW 3 4 1023.8 - 0.0 - Cloudy 10 - - - -
26/06:00am 10.5 CALM 0 0 1023.1 - 0.0 - Cloudy 10 - - - -
26/05:30am 10.6 CALM 0 0 1022.9 - 0.0 - Partly cloudy 10 - - - -
26/05:00am 10.3 CALM 0 0 1022.6 - 0.0 - - 10 - - - -
26/04:30am 10.3 CALM 0 0 1022.6 - 0.0 - - 10 - - - -
26/04:14am 10.2 CALM 0 0 1022.7 - 0.0 - - 9 - - - -
26/04:00am 10.1 CALM 0 0 1022.6 - 0.0 - - 4 - - - -
26/03:51am 10.1 CALM 0 0 1022.5 - 0.0 - - 5 - - - -
26/03:30am 10.4 SW 2 4 1022.8 - 0.0 - - 9 - - - -
26/03:05am 10.1 CALM 0 0 1022.7 - 0.0 - - 10 - - - -
26/03:00am 10.2 CALM 0 0 1022.6 - 0.0 - Cloudy 10 - - - -
26/02:30am 9.6 WNW 1 4 1023.0 - 0.0 - - 0.7 - - - -
26/02:14am 10.4 N 4 5 1022.9 - 0.0 - - 3 - - - -
26/02:00am 10.9 CALM 0 0 1023.0 - 0.0 - - 10 - - - -
26/01:55am 10.8 CALM 0 0 1023.0 - 0.0 - - 10 - - - -
26/01:30am 10.6 CALM 0 0 1023.1 - 0.0 - - 0.5 - - - -
26/01:00am 10.6 CALM 0 0 1023.1 - 0.0 - - 0.3 - - - -
26/12:44am 11.5 NW 0 0 1023.1 - 0.0 - - 3 - - - -
26/12:30am 12.0 CALM 0 0 1023.2 - 0.0 - - 10 - - - -
26/12:00am 12.5 WNW 0 2 1023.7 - 0.0 - Partly cloudy 10 - - - -
 
Date/Time
EST
Temp

°C
Wind Pressure Rain
since 9am
mm
Weather Cloud Vis
km
Sea
Height
m
Swell
Dir
 
Speed
knots
Gust
knots
hPa Trend Height
m
Period
s
Dir
25/11:30pm 12.4 CALM 0 0 1023.8 - 0.0 - - 10 - - - -
25/11:00pm 14.2 CALM 0 0 1023.8 - 0.0 - - 10 - - - -
25/10:30pm 14.2 S 3 4 1024.3 - 0.0 - - 10 - - - -
25/10:00pm 14.2 CALM 0 5 1024.2 - 0.0 - - 10 - - - -
25/09:30pm 14.9 S 1 3 1024.3 - 0.0 - - 10 - - - -
25/09:00pm 15.3 CALM 0 0 1024.3 - 0.0 - Cloudy 10 - - - -
25/08:30pm 16.9 NE 4 5 1024.0 - 0.0 - - 10 - - - -
25/08:00pm 15.7 NNE 4 4 1023.9 - 0.0 - - 10 - - - -
25/07:30pm 15.5 CALM 0 0 1023.9 - 0.0 - Partly cloudy 10 - - - -
25/07:00pm 15.9 CALM 0 0 1023.6 - 0.0 - Partly cloudy 10 - - - -
25/06:30pm 16.8 N 2 5 1023.2 - 0.0 - - 10 - - - -
25/06:00pm 18.3 NNE 6 8 1022.9 - 0.0 - Cloudy 10 - - - -
25/05:30pm 19.0 NE 4 7 1022.6 - 0.0 - Partly cloudy 10 - - - -
25/05:00pm 19.3 NNE 6 9 1022.0 - 0.0 - Partly cloudy 10 - - - -
25/04:30pm 20.4 NE 7 8 1021.9 - 0.0 - Partly cloudy 10 - - - -
25/04:00pm 20.5 NE 7 11 1021.8 - 0.0 - Partly cloudy 10 - - - -
25/03:30pm 20.9 NE 8 12 1021.8 - 0.0 - - 10 - - - -
25/03:00pm 21.4 NE 10 14 1021.5 - 0.0 - - 10 - - - -
25/02:30pm 22.0 ENE 11 14 1021.4 - 0.0 - - 10 - - - -
25/02:00pm 22.0 ENE 10 13 1021.5 - 0.0 - - 10 - - - -
25/01:30pm 22.5 NE 7 9 1021.7 - 0.0 - - 10 - - - -
25/01:00pm 22.5 NE 5 7 1022.0 - 0.0 - - 10 - - - -
25/12:30pm 22.8 ENE 5 8 1022.3 - 0.0 - - 10 - - - -
25/12:00pm 22.8 NNW 2 5 1022.8 - 0.0 - - 10 - - - -
25/11:30am 20.9 N 5 7 1023.0 - 0.0 - - 10 - - - -
25/11:00am 19.5 NNW 2 5 1023.7 - 0.0 - - 10 - - - -
25/10:30am 18.3 NNW 3 6 1023.8 - 0.0 - - 10 - - - -
25/10:00am 16.6 NW 5 7 1024.3 - 0.0 - - 10 - - - -
25/09:30am 14.8 NNW 5 7 1024.1 - 0.0 - - 10 - - - -
25/09:00am 12.9 N 4 5 1024.0 - 0.0 - - 10 - - - -
25/08:30am 11.0 CALM 0 0 1023.8 - 0.0 - - 10 - - - -
25/08:00am 9.5 NNW 1 3 1023.8 - 0.0 - - 10 - - - -
25/07:30am 7.6 NW 2 3 1023.6 - 0.0 - - 10 - - - -
25/07:07am 6.8 NW 3 4 1023.2 - 0.0 - - 10 - - - -
25/07:00am 6.5 NW 3 4 1023.1 - 0.0 - - 10 - - - -
25/06:30am 5.9 N 1 3 1023.1 - 0.0 - - 1 - - - -
25/06:19am 6.6 N 2 3 1023.0 - 0.0 - - 5 - - - -
25/06:00am 7.0 WNW 3 5 1022.9 - 0.0 - - 10 - - - -
25/05:30am 7.6 CALM 0 3 1022.9 - 0.0 - - 10 - - - -
25/05:00am 7.6 N 4 4 1022.4 - 0.0 - - 10 - - - -
25/04:30am 7.8 CALM 0 0 1022.3 - 0.0 - Cloudy 10 - - - -
25/04:00am 8.1 N 3 4 1022.2 - 0.0 - Partly cloudy 10 - - - -
25/03:30am 8.1 N 3 4 1022.4 - 0.0 - - 10 - - - -
25/03:00am 8.7 CALM 0 0 1022.5 - 0.0 - Mostly cloudy 10 - - - -
25/02:30am 7.7 NNW 3 4 1022.6 - 0.0 - Partly cloudy 10 - - - -
25/02:17am 7.8 NNW 3 4 1022.5 - 0.0 - Partly cloudy 10 - - - -
25/02:00am 8.6 CALM 0 4 1022.3 - 0.0 - Partly cloudy 0.5 - - - -
25/01:46am 9.0 CALM 0 0 1022.3 - 0.0 - Partly cloudy 5 - - - -
25/01:30am 9.3 CALM 0 0 1022.2 - 0.0 - Partly cloudy 10 - - - -
25/01:00am 10.4 CALM 0 0 1022.3 - 0.0 - Cloudy 10 - - - -
25/12:30am 10.9 N 4 5 1021.8 - 0.0 - Cloudy 10 - - - -
25/12:00am 11.1 N 5 7 1022.0 - 0.0 - Cloudy 10 - - - -
 
Date/Time
EST
Temp

°C
Wind Pressure Rain
since 9am
mm
Weather Cloud Vis
km
Sea
Height
m
Swell
Dir
 
Speed
knots
Gust
knots
hPa Trend Height
m
Period
s
Dir
24/11:30pm 8.2 NW 2 4 1022.3 - 0.0 - Partly cloudy 10 - - - -
24/11:09pm 8.1 CALM 0 0 1022.4 - 0.0 - Partly cloudy 6 - - - -
24/11:00pm 9.1 CALM 0 0 1022.3 - 0.0 - - 9 - - - -
24/10:36pm 9.0 NW 1 5 1022.4 - 0.0 - - 5 - - - -
24/10:30pm 9.6 NW 4 5 1022.4 - 0.0 - - 10 - - - -
24/10:00pm 9.9 NNW 4 5 1022.4 - 0.0 - - 10 - - - -
24/09:30pm 9.5 CALM 0 0 1022.5 - 0.0 - - 10 - - - -
24/09:00pm 10.3 CALM 0 0 1022.4 - 0.0 - Cloudy 10 - - - -
24/08:30pm 10.2 CALM 0 0 1022.4 - 0.0 - Partly cloudy 10 - - - -
24/08:00pm 10.3 CALM 0 0 1022.3 - 0.0 - Partly cloudy 10 - - - -
24/07:30pm 11.1 CALM 0 0 1022.1 - 0.0 - Partly cloudy 10 - - - -
24/07:00pm 12.0 CALM 0 0 1022.1 - 0.0 - Cloudy 10 - - - -
24/06:30pm 12.7 N 3 4 1021.8 - 0.0 - Partly cloudy 10 - - - -
24/06:00pm 14.1 N 3 4 1021.8 - 0.0 - - 10 - - - -
24/05:30pm 15.4 NNE 3 5 1021.4 - 0.0 - Partly cloudy 10 - - - -
24/05:00pm 16.7 NNE 5 7 1021.2 - 0.0 - Cloudy 10 - - - -
24/04:30pm 17.4 NNE 6 6 1020.9 - 0.0 - Cloudy 10 - - - -
24/04:00pm 17.8 N 3 4 1020.8 - 0.0 - Partly cloudy 10 - - - -
24/03:30pm 18.0 N 6 8 1020.7 - 0.0 - - 10 - - - -
24/03:00pm 19.5 NNE 5 7 1020.4 - 0.0 - Mostly cloudy 10 - - - -
24/02:30pm 18.5 NNE 7 9 1020.6 - 0.0 - - 10 - - - -
24/02:00pm 18.2 N 8 11 1020.9 - 0.0 - - 10 - - - -
24/01:30pm 18.0 N 6 9 1021.1 - 0.0 - - 10 - - - -
24/01:00pm 18.1 N 9 12 1021.5 - 0.0 - - 10 - - - -
24/12:30pm 18.3 N 11 14 1021.8 - 0.0 - - 10 - - - -
24/12:00pm 17.6 NE 8 10 1022.2 - 0.0 - Cloudy 10 - - - -
24/11:30am 16.2 N 4 6 1022.7 - 0.0 - - 10 - - - -
24/11:00am 14.7 NW 4 6 1023.6 - 0.0 - - 10 - - - -
24/10:30am 13.3 NNW 4 6 1023.8 - 0.0 - - 10 - - - -
24/10:00am 12.2 NW 4 4 1023.7 - 0.0 - - 10 - - - -
24/09:30am 11.2 NW 4 6 1023.6 - 0.0 - - 10 - - - -
24/09:00am 10.8 NW 4 6 1023.3 - 0.0 - Cloudy 10 - - - -
24/08:30am 10.6 NNW 1 4 1022.8 - 0.0 - - 10 - - - -
24/08:00am 9.3 NNW 3 4 1022.6 - 0.0 - - 10 - - - -
24/07:30am 8.1 N 3 4 1022.6 - 0.0 - - 10 - - - -
24/07:00am 8.1 CALM 0 0 1022.7 - 0.0 - - 10 - - - -
24/06:30am 7.5 WNW 3 4 1022.5 - 0.0 - - 10 - - - -
24/06:00am 7.8 CALM 0 0 1021.9 - 0.0 - Cloudy 10 - - - -
24/05:30am 7.9 NW 1 3 1021.4 - 0.0 - - 10 - - - -
24/05:00am 6.6 NNW 3 4 1021.5 - 0.0 - - 10 - - - -
24/04:56am 6.6 NNW 3 4 1021.6 - 0.0 - - 10 - - - -
24/04:31am 6.4 CALM 0 0 1021.5 - 0.0 - - 4 - - - -
24/04:30am 6.5 CALM 0 1 1021.5 - 0.0 - - 8 - - - -
24/04:00am 7.4 NW 4 5 1021.6 - 0.0 - - 10 - - - -
24/03:30am 8.2 NNW 3 4 1021.4 - 0.0 - - 10 - - - -
24/03:00am 8.0 NW 3 4 1021.6 - 0.0 - Mostly cloudy 10 - - - -
24/02:30am 8.8 NNW 3 4 1021.9 - 0.0 - - 10 - - - -
24/02:00am 8.8 CALM 0 2 1022.1 - 0.0 - - 10 - - - -
24/01:30am 8.5 CALM 0 3 1022.1 - 0.0 - - 10 - - - -
24/01:25am 8.1 W 1 3 1022.1 - 0.0 - - 10 - - - -
24/01:11am 6.6 WNW 3 5 1022.1 - 0.0 - - 5 - - - -
24/01:00am 7.3 CALM 0 0 1022.1 - 0.0 - - 10 - - - -
24/12:30am 6.2 WNW 2 3 1022.4 - 0.0 - - 10 - - - -
24/12:11am 7.1 CALM 0 0 1022.3 - 0.0 - - 10 - - - -
24/12:00am 7.7 NW 3 4 1022.5 - 0.0 - - 2 - - - -
 
Date/Time
EST
Temp

°C
Wind Pressure Rain
since 9am
mm
Weather Cloud Vis
km
Sea
Height
m
Swell
Dir
 
Speed
knots
Gust
knots
hPa Trend Height
m
Period
s
Dir
23/11:30pm 7.1 CALM 0 0 1022.6 - 0.0 - - 0.8 - - - -
23/11:00pm 7.1 CALM 0 0 1022.8 - 0.0 - - 0.3 - - - -
23/10:30pm 7.9 CALM 0 0 1023.1 - 0.0 - - 10 - - - -
23/10:18pm 7.8 CALM 0 0 1023.0 - 0.0 - - 5 - - - -
23/10:00pm 8.9 CALM 0 0 1023.2 - 0.0 - - 10 - - - -
23/09:30pm 8.2 CALM 0 0 1023.3 - 0.0 - - 10 - - - -
23/09:25pm 8.0 CALM 0 0 1023.4 - 0.0 - - 10 - - - -
23/09:00pm 8.7 W 2 4 1023.4 - 0.0 - Mostly cloudy 5 - - - -
23/08:46pm 8.4 CALM 0 0 1023.3 - 0.0 - - 5 - - - -
23/08:30pm 9.2 WNW 2 4 1023.1 - 0.0 - - 10 - - - -
23/08:22pm 9.6 WNW 4 5 1023.1 - 0.0 - - 10 - - - -
23/08:00pm 9.1 CALM 0 0 1023.0 - 0.0 - - 3 - - - -
23/07:58pm 9.2 CALM 0 0 1023.0 - 0.0 - - 5 - - - -
23/07:30pm 10.0 CALM 0 0 1022.9 - 0.0 - - 10 - - - -

Other Formats:

Comma delimited format used in spreadsheet applications
http://www.bom.gov.au/fwo/IDN60701/IDN60701.94786.axf

JavaScript Object Notation format (JSON) in row-major order
http://www.bom.gov.au/fwo/IDN60701/IDN60701.94786.json